مكناس, Morocco

06:50 PM WET on لبراêر 14, 2016 (GMT +0000)
Meknes | | Change Station
CLOSE
Current Station
Airport
Location: Meknes,
Elevation: 1890 ft
Nearby Weather Stations

Elev 1890 ft 33.88 °N, 5.52 °W | Updated 40 minutes ago

Mostly Cloudy
غائم كلياً
54 °F
Feels Like 54 °F
N
21
ريح متغير ريح from غرب
Gusts 37 mph

هذا اليوم
High -- | Low -- °F
--% Chance of Precip.
Yesterday
High -- | Low -- °F
Precip. -- في
الضغط 30.09 في
وضوح الرؤية 3.7 أميال
سحابات غيوم متفرقة 1300 ft
غائم كلياً 1600 ft
نقطة الندى 48 °F
الرطوبة 82%
Rainfall 0.00 في
عمق الثلج Not available.
7:08 AM 6:04 PM
الهلال الأول, 44% visible
METAR GMFM 141810Z 27018G32KT 6000 SCT013 BKN016 12/09 Q1019 TEMPO RA
الضغط 30.09 في
وضوح الرؤية 3.7 أميال
سحابات غيوم متفرقة 1300 ft
غائم كلياً 1600 ft
نقطة الندى 48 °F
الرطوبة 82%
Rainfall 0.00 في
عمق الثلج Not available.
7:08 AM 6:04 PM
الهلال الأول, 44% visible
METAR GMFM 141810Z 27018G32KT 6000 SCT013 BKN016 12/09 Q1019 TEMPO RA

10-Day Weather Forecast

No radar image for this location.
×

Almanac

علم الفلك

Feb. 14, 2016 Rise Set
Actual Time
Civil Twilight
Nautical Twilight
Astronomical Twilight
قمر
Length Of Visible Light
طول الیوم
Tomorrow will be .
, % of the Moon is Illuminated

Today's Extremes

Country Highs Country Lows

Community

WunderPhotos

Upload Photos

1,892,870 photos uploaded!

WunderBlog® & News

Nearby

جودة الهواء

  جودة الهواء AQ Index Pollutant
Not available.

عمق الثلج

Station Depth Elevation

Earthquake Activity

City Distance Mag. Time & Date
Minimum magnitude displayed is 2.5.

Coastal Water Temperatures

مكان درجات الحرارة

Stations

Nearby Weather Stations

Station Location الحرارة رياح باردة نقطة الندى الرطوبة ريح Precip. Elev تحديث Type